sensor_id;sensor_type;location;lat;lon;timestamp;P1;durP1;ratioP1;P2;durP2;ratioP2
21315;SDS011;10817;55.820;13.030;2023-03-03T00:00:42;16.80;;;10.32;;
21315;SDS011;10817;55.820;13.030;2023-03-03T00:03:11;20.95;;;11.05;;
21315;SDS011;10817;55.820;13.030;2023-03-03T00:05:41;16.85;;;10.38;;
21315;SDS011;10817;55.820;13.030;2023-03-03T00:08:08;16.75;;;10.75;;
21315;SDS011;10817;55.820;13.030;2023-03-03T00:10:36;17.02;;;10.32;;
21315;SDS011;10817;55.820;13.030;2023-03-03T00:13:03;17.85;;;10.20;;
21315;SDS011;10817;55.820;13.030;2023-03-03T00:15:32;18.40;;;11.48;;
21315;SDS011;10817;55.820;13.030;2023-03-03T00:17:59;19.67;;;10.68;;
21315;SDS011;10817;55.820;13.030;2023-03-03T00:20:29;16.13;;;10.18;;
21315;SDS011;10817;55.820;13.030;2023-03-03T00:22:57;17.70;;;10.50;;
21315;SDS011;10817;55.820;13.030;2023-03-03T00:25:28;17.23;;;10.18;;
21315;SDS011;10817;55.820;13.030;2023-03-03T00:27:55;19.13;;;9.70;;
21315;SDS011;10817;55.820;13.030;2023-03-03T00:30:27;13.93;;;9.63;;
21315;SDS011;10817;55.820;13.030;2023-03-03T00:32:56;20.27;;;10.75;;
21315;SDS011;10817;55.820;13.030;2023-03-03T00:35:24;15.05;;;10.07;;
21315;SDS011;10817;55.820;13.030;2023-03-03T00:37:53;15.38;;;10.85;;
21315;SDS011;10817;55.820;13.030;2023-03-03T00:40:21;14.65;;;9.50;;
21315;SDS011;10817;55.820;13.030;2023-03-03T00:42:49;15.52;;;10.18;;
21315;SDS011;10817;55.820;13.030;2023-03-03T00:45:22;15.32;;;9.98;;
21315;SDS011;10817;55.820;13.030;2023-03-03T00:47:51;16.02;;;10.27;;
21315;SDS011;10817;55.820;13.030;2023-03-03T00:50:25;17.10;;;11.27;;
21315;SDS011;10817;55.820;13.030;2023-03-03T00:53:04;17.80;;;10.77;;
21315;SDS011;10817;55.820;13.030;2023-03-03T00:55:32;15.13;;;10.10;;
21315;SDS011;10817;55.820;13.030;2023-03-03T00:57:59;21.33;;;10.82;;
21315;SDS011;10817;55.820;13.030;2023-03-03T01:00:31;16.65;;;10.35;;
21315;SDS011;10817;55.820;13.030;2023-03-03T01:02:59;19.15;;;10.95;;
21315;SDS011;10817;55.820;13.030;2023-03-03T01:05:29;20.20;;;12.02;;
21315;SDS011;10817;55.820;13.030;2023-03-03T01:07:56;18.40;;;11.32;;
21315;SDS011;10817;55.820;13.030;2023-03-03T01:10:23;16.77;;;11.55;;
21315;SDS011;10817;55.820;13.030;2023-03-03T01:12:51;18.98;;;11.63;;
21315;SDS011;10817;55.820;13.030;2023-03-03T01:15:19;17.70;;;11.05;;
21315;SDS011;10817;55.820;13.030;2023-03-03T01:17:46;16.33;;;11.20;;
21315;SDS011;10817;55.820;13.030;2023-03-03T01:20:15;20.38;;;11.00;;
21315;SDS011;10817;55.820;13.030;2023-03-03T01:22:44;20.17;;;11.40;;
21315;SDS011;10817;55.820;13.030;2023-03-03T01:25:11;17.55;;;10.70;;
21315;SDS011;10817;55.820;13.030;2023-03-03T01:27:38;21.85;;;11.73;;
21315;SDS011;10817;55.820;13.030;2023-03-03T01:30:07;17.95;;;10.68;;
21315;SDS011;10817;55.820;13.030;2023-03-03T01:32:35;16.10;;;10.55;;
21315;SDS011;10817;55.820;13.030;2023-03-03T01:35:02;21.48;;;12.05;;
21315;SDS011;10817;55.820;13.030;2023-03-03T01:37:29;18.77;;;11.52;;
21315;SDS011;10817;55.820;13.030;2023-03-03T01:39:58;18.27;;;12.25;;
21315;SDS011;10817;55.820;13.030;2023-03-03T01:42:25;21.65;;;12.95;;
21315;SDS011;10817;55.820;13.030;2023-03-03T01:45:16;20.05;;;11.88;;
21315;SDS011;10817;55.820;13.030;2023-03-03T01:47:45;16.98;;;11.93;;
21315;SDS011;10817;55.820;13.030;2023-03-03T01:50:13;20.80;;;12.18;;
21315;SDS011;10817;55.820;13.030;2023-03-03T01:52:41;24.23;;;11.75;;
21315;SDS011;10817;55.820;13.030;2023-03-03T01:55:11;17.88;;;11.75;;
21315;SDS011;10817;55.820;13.030;2023-03-03T01:57:40;20.20;;;12.35;;
21315;SDS011;10817;55.820;13.030;2023-03-03T02:00:11;25.17;;;14.15;;
21315;SDS011;10817;55.820;13.030;2023-03-03T02:02:38;25.98;;;13.82;;
21315;SDS011;10817;55.820;13.030;2023-03-03T02:05:07;26.17;;;14.85;;
21315;SDS011;10817;55.820;13.030;2023-03-03T02:07:35;27.80;;;14.68;;
21315;SDS011;10817;55.820;13.030;2023-03-03T02:10:04;23.92;;;13.95;;
21315;SDS011;10817;55.820;13.030;2023-03-03T02:12:35;25.83;;;13.07;;
21315;SDS011;10817;55.820;13.030;2023-03-03T02:15:07;28.13;;;14.13;;
21315;SDS011;10817;55.820;13.030;2023-03-03T02:17:37;30.50;;;16.23;;
21315;SDS011;10817;55.820;13.030;2023-03-03T02:20:05;35.15;;;17.13;;
21315;SDS011;10817;55.820;13.030;2023-03-03T02:22:34;32.20;;;18.30;;
21315;SDS011;10817;55.820;13.030;2023-03-03T02:25:04;51.10;;;19.63;;
21315;SDS011;10817;55.820;13.030;2023-03-03T02:27:35;53.42;;;19.00;;
21315;SDS011;10817;55.820;13.030;2023-03-03T02:30:13;50.63;;;19.38;;
21315;SDS011;10817;55.820;13.030;2023-03-03T02:32:41;52.03;;;19.67;;
21315;SDS011;10817;55.820;13.030;2023-03-03T02:35:24;44.60;;;20.17;;
21315;SDS011;10817;55.820;13.030;2023-03-03T02:37:53;49.00;;;19.27;;
21315;SDS011;10817;55.820;13.030;2023-03-03T02:40:21;59.88;;;18.95;;
21315;SDS011;10817;55.820;13.030;2023-03-03T02:42:55;41.25;;;20.98;;
21315;SDS011;10817;55.820;13.030;2023-03-03T02:45:24;41.05;;;21.70;;
21315;SDS011;10817;55.820;13.030;2023-03-03T02:47:51;42.70;;;20.85;;
21315;SDS011;10817;55.820;13.030;2023-03-03T02:50:18;50.33;;;21.27;;
21315;SDS011;10817;55.820;13.030;2023-03-03T02:52:46;56.00;;;19.52;;
21315;SDS011;10817;55.820;13.030;2023-03-03T02:55:13;53.85;;;17.90;;
21315;SDS011;10817;55.820;13.030;2023-03-03T02:57:40;56.80;;;20.70;;
21315;SDS011;10817;55.820;13.030;2023-03-03T03:00:10;39.80;;;20.80;;
21315;SDS011;10817;55.820;13.030;2023-03-03T03:02:37;43.63;;;22.27;;
21315;SDS011;10817;55.820;13.030;2023-03-03T03:05:05;40.35;;;21.05;;
21315;SDS011;10817;55.820;13.030;2023-03-03T03:07:33;43.97;;;22.25;;
21315;SDS011;10817;55.820;13.030;2023-03-03T03:10:01;50.95;;;22.92;;
21315;SDS011;10817;55.820;13.030;2023-03-03T03:12:30;43.70;;;22.45;;
21315;SDS011;10817;55.820;13.030;2023-03-03T03:14:59;46.50;;;22.27;;
21315;SDS011;10817;55.820;13.030;2023-03-03T03:17:29;39.80;;;21.80;;
21315;SDS011;10817;55.820;13.030;2023-03-03T03:19:58;43.53;;;22.35;;
21315;SDS011;10817;55.820;13.030;2023-03-03T03:22:25;38.45;;;20.30;;
21315;SDS011;10817;55.820;13.030;2023-03-03T03:24:53;45.38;;;20.80;;
21315;SDS011;10817;55.820;13.030;2023-03-03T03:27:21;37.30;;;19.67;;
21315;SDS011;10817;55.820;13.030;2023-03-03T03:29:49;39.05;;;19.02;;
21315;SDS011;10817;55.820;13.030;2023-03-03T03:32:17;40.97;;;19.55;;
21315;SDS011;10817;55.820;13.030;2023-03-03T03:34:46;73.80;;;21.27;;
21315;SDS011;10817;55.820;13.030;2023-03-03T03:37:13;52.45;;;19.02;;
21315;SDS011;10817;55.820;13.030;2023-03-03T03:39:43;41.28;;;18.73;;
21315;SDS011;10817;55.820;13.030;2023-03-03T03:42:10;43.03;;;21.90;;
21315;SDS011;10817;55.820;13.030;2023-03-03T03:44:38;60.08;;;22.65;;
21315;SDS011;10817;55.820;13.030;2023-03-03T03:47:05;50.45;;;21.02;;
21315;SDS011;10817;55.820;13.030;2023-03-03T03:49:32;64.57;;;20.40;;
21315;SDS011;10817;55.820;13.030;2023-03-03T03:52:01;47.72;;;21.30;;
21315;SDS011;10817;55.820;13.030;2023-03-03T03:54:31;51.30;;;20.23;;
21315;SDS011;10817;55.820;13.030;2023-03-03T03:56:59;52.97;;;21.10;;
21315;SDS011;10817;55.820;13.030;2023-03-03T03:59:27;45.95;;;21.35;;
21315;SDS011;10817;55.820;13.030;2023-03-03T04:01:55;44.58;;;20.95;;
21315;SDS011;10817;55.820;13.030;2023-03-03T04:04:24;39.45;;;21.10;;
21315;SDS011;10817;55.820;13.030;2023-03-03T04:06:52;40.72;;;20.40;;
21315;SDS011;10817;55.820;13.030;2023-03-03T04:09:20;38.92;;;19.17;;
21315;SDS011;10817;55.820;13.030;2023-03-03T04:11:48;59.03;;;19.30;;
21315;SDS011;10817;55.820;13.030;2023-03-03T04:14:15;47.33;;;18.10;;
21315;SDS011;10817;55.820;13.030;2023-03-03T04:16:43;41.25;;;18.15;;
21315;SDS011;10817;55.820;13.030;2023-03-03T04:19:10;33.17;;;18.02;;
21315;SDS011;10817;55.820;13.030;2023-03-03T04:21:40;32.20;;;17.38;;
21315;SDS011;10817;55.820;13.030;2023-03-03T04:24:07;43.03;;;18.58;;
21315;SDS011;10817;55.820;13.030;2023-03-03T04:26:38;40.42;;;19.45;;
21315;SDS011;10817;55.820;13.030;2023-03-03T04:29:05;52.92;;;20.50;;
21315;SDS011;10817;55.820;13.030;2023-03-03T04:31:33;46.90;;;20.00;;
21315;SDS011;10817;55.820;13.030;2023-03-03T04:34:02;47.97;;;21.65;;
21315;SDS011;10817;55.820;13.030;2023-03-03T04:36:29;43.33;;;21.10;;
21315;SDS011;10817;55.820;13.030;2023-03-03T04:38:57;40.10;;;20.25;;
21315;SDS011;10817;55.820;13.030;2023-03-03T04:41:25;51.25;;;20.23;;
21315;SDS011;10817;55.820;13.030;2023-03-03T04:43:53;37.08;;;20.27;;
21315;SDS011;10817;55.820;13.030;2023-03-03T04:46:20;55.83;;;20.60;;
21315;SDS011;10817;55.820;13.030;2023-03-03T04:48:50;42.97;;;19.05;;
21315;SDS011;10817;55.820;13.030;2023-03-03T04:51:18;46.42;;;19.55;;
21315;SDS011;10817;55.820;13.030;2023-03-03T04:53:45;39.97;;;18.48;;
21315;SDS011;10817;55.820;13.030;2023-03-03T04:56:13;35.88;;;18.00;;
21315;SDS011;10817;55.820;13.030;2023-03-03T04:58:40;31.70;;;17.95;;
21315;SDS011;10817;55.820;13.030;2023-03-03T05:01:09;29.58;;;17.33;;
21315;SDS011;10817;55.820;13.030;2023-03-03T05:03:38;29.38;;;16.88;;
21315;SDS011;10817;55.820;13.030;2023-03-03T05:06:06;25.83;;;15.60;;
21315;SDS011;10817;55.820;13.030;2023-03-03T05:08:33;32.63;;;16.80;;
21315;SDS011;10817;55.820;13.030;2023-03-03T05:11:00;28.35;;;16.42;;
21315;SDS011;10817;55.820;13.030;2023-03-03T05:13:27;27.52;;;16.30;;
21315;SDS011;10817;55.820;13.030;2023-03-03T05:15:55;24.08;;;14.15;;
21315;SDS011;10817;55.820;13.030;2023-03-03T05:18:24;24.98;;;14.48;;
21315;SDS011;10817;55.820;13.030;2023-03-03T05:20:52;29.15;;;14.98;;
21315;SDS011;10817;55.820;13.030;2023-03-03T05:23:20;27.92;;;15.18;;
21315;SDS011;10817;55.820;13.030;2023-03-03T05:25:47;25.73;;;14.15;;
21315;SDS011;10817;55.820;13.030;2023-03-03T05:28:14;28.23;;;15.45;;
21315;SDS011;10817;55.820;13.030;2023-03-03T05:30:42;31.80;;;15.95;;
21315;SDS011;10817;55.820;13.030;2023-03-03T05:33:11;30.08;;;15.85;;
21315;SDS011;10817;55.820;13.030;2023-03-03T05:35:40;28.65;;;15.77;;
21315;SDS011;10817;55.820;13.030;2023-03-03T05:38:08;29.95;;;15.05;;
21315;SDS011;10817;55.820;13.030;2023-03-03T05:40:35;27.90;;;15.35;;
21315;SDS011;10817;55.820;13.030;2023-03-03T05:43:02;32.20;;;16.55;;
21315;SDS011;10817;55.820;13.030;2023-03-03T05:45:29;26.98;;;15.90;;
21315;SDS011;10817;55.820;13.030;2023-03-03T05:47:56;30.63;;;15.45;;
21315;SDS011;10817;55.820;13.030;2023-03-03T05:50:23;25.42;;;14.32;;
21315;SDS011;10817;55.820;13.030;2023-03-03T05:52:54;27.77;;;15.10;;
21315;SDS011;10817;55.820;13.030;2023-03-03T05:55:21;31.60;;;15.98;;
21315;SDS011;10817;55.820;13.030;2023-03-03T05:57:49;29.83;;;15.80;;
21315;SDS011;10817;55.820;13.030;2023-03-03T06:00:16;35.72;;;15.65;;
21315;SDS011;10817;55.820;13.030;2023-03-03T06:02:43;35.03;;;15.15;;
21315;SDS011;10817;55.820;13.030;2023-03-03T06:05:11;31.75;;;16.10;;
21315;SDS011;10817;55.820;13.030;2023-03-03T06:07:38;31.23;;;15.45;;
21315;SDS011;10817;55.820;13.030;2023-03-03T06:10:07;35.33;;;16.42;;
21315;SDS011;10817;55.820;13.030;2023-03-03T06:12:37;44.08;;;18.63;;
21315;SDS011;10817;55.820;13.030;2023-03-03T06:15:06;49.47;;;17.83;;
21315;SDS011;10817;55.820;13.030;2023-03-03T06:17:34;113.65;;;19.83;;
21315;SDS011;10817;55.820;13.030;2023-03-03T06:20:01;60.28;;;17.75;;
21315;SDS011;10817;55.820;13.030;2023-03-03T06:22:29;63.55;;;18.55;;
21315;SDS011;10817;55.820;13.030;2023-03-03T06:24:56;39.25;;;18.70;;
21315;SDS011;10817;55.820;13.030;2023-03-03T06:27:24;93.45;;;21.45;;
21315;SDS011;10817;55.820;13.030;2023-03-03T06:29:52;72.32;;;19.50;;
21315;SDS011;10817;55.820;13.030;2023-03-03T06:32:19;71.88;;;19.35;;
21315;SDS011;10817;55.820;13.030;2023-03-03T06:34:47;58.70;;;20.73;;
21315;SDS011;10817;55.820;13.030;2023-03-03T06:37:15;107.63;;;20.40;;
21315;SDS011;10817;55.820;13.030;2023-03-03T06:39:42;66.75;;;19.35;;
21315;SDS011;10817;55.820;13.030;2023-03-03T06:42:09;60.63;;;21.40;;
21315;SDS011;10817;55.820;13.030;2023-03-03T06:44:38;95.03;;;20.98;;
21315;SDS011;10817;55.820;13.030;2023-03-03T06:47:05;50.35;;;19.40;;
21315;SDS011;10817;55.820;13.030;2023-03-03T06:49:32;56.28;;;19.65;;
21315;SDS011;10817;55.820;13.030;2023-03-03T06:52:00;62.55;;;19.20;;
21315;SDS011;10817;55.820;13.030;2023-03-03T06:54:28;66.75;;;18.30;;
21315;SDS011;10817;55.820;13.030;2023-03-03T06:56:57;39.33;;;16.83;;
21315;SDS011;10817;55.820;13.030;2023-03-03T06:59:25;41.58;;;16.15;;
21315;SDS011;10817;55.820;13.030;2023-03-03T07:01:54;67.45;;;17.20;;
21315;SDS011;10817;55.820;13.030;2023-03-03T07:04:23;56.75;;;17.42;;
21315;SDS011;10817;55.820;13.030;2023-03-03T07:06:53;59.47;;;17.58;;
21315;SDS011;10817;55.820;13.030;2023-03-03T07:09:20;75.45;;;17.27;;
21315;SDS011;10817;55.820;13.030;2023-03-03T07:11:48;43.55;;;18.25;;
21315;SDS011;10817;55.820;13.030;2023-03-03T07:14:17;85.00;;;16.50;;
21315;SDS011;10817;55.820;13.030;2023-03-03T07:16:44;60.67;;;17.63;;
21315;SDS011;10817;55.820;13.030;2023-03-03T07:19:15;70.55;;;16.30;;
21315;SDS011;10817;55.820;13.030;2023-03-03T07:21:44;77.13;;;16.80;;
21315;SDS011;10817;55.820;13.030;2023-03-03T07:24:18;58.95;;;15.20;;
21315;SDS011;10817;55.820;13.030;2023-03-03T07:26:48;50.42;;;16.05;;
21315;SDS011;10817;55.820;13.030;2023-03-03T07:29:18;44.08;;;15.75;;
21315;SDS011;10817;55.820;13.030;2023-03-03T07:31:47;66.45;;;14.35;;
21315;SDS011;10817;55.820;13.030;2023-03-03T07:34:18;92.65;;;14.20;;
21315;SDS011;10817;55.820;13.030;2023-03-03T07:36:47;79.10;;;14.80;;
21315;SDS011;10817;55.820;13.030;2023-03-03T07:39:25;58.33;;;15.07;;
21315;SDS011;10817;55.820;13.030;2023-03-03T07:41:54;31.75;;;13.25;;
21315;SDS011;10817;55.820;13.030;2023-03-03T07:44:27;69.88;;;14.98;;
21315;SDS011;10817;55.820;13.030;2023-03-03T07:46:57;49.67;;;15.43;;
21315;SDS011;10817;55.820;13.030;2023-03-03T07:49:29;60.00;;;14.45;;
21315;SDS011;10817;55.820;13.030;2023-03-03T07:52:00;48.83;;;13.52;;
21315;SDS011;10817;55.820;13.030;2023-03-03T07:54:28;74.97;;;15.88;;
21315;SDS011;10817;55.820;13.030;2023-03-03T07:56:56;65.80;;;15.02;;
21315;SDS011;10817;55.820;13.030;2023-03-03T07:59:24;61.67;;;15.98;;
21315;SDS011;10817;55.820;13.030;2023-03-03T08:01:52;73.45;;;14.85;;
21315;SDS011;10817;55.820;13.030;2023-03-03T08:04:22;89.85;;;15.70;;
21315;SDS011;10817;55.820;13.030;2023-03-03T08:06:52;49.60;;;15.32;;
21315;SDS011;10817;55.820;13.030;2023-03-03T08:09:24;51.05;;;15.45;;
21315;SDS011;10817;55.820;13.030;2023-03-03T08:11:54;50.38;;;15.48;;
21315;SDS011;10817;55.820;13.030;2023-03-03T08:14:24;34.97;;;14.80;;
21315;SDS011;10817;55.820;13.030;2023-03-03T08:16:51;53.47;;;14.80;;
21315;SDS011;10817;55.820;13.030;2023-03-03T08:19:18;58.03;;;14.43;;
21315;SDS011;10817;55.820;13.030;2023-03-03T08:21:46;73.38;;;14.75;;
21315;SDS011;10817;55.820;13.030;2023-03-03T08:24:14;34.17;;;13.40;;
21315;SDS011;10817;55.820;13.030;2023-03-03T08:26:41;68.65;;;13.70;;
21315;SDS011;10817;55.820;13.030;2023-03-03T08:29:09;32.50;;;12.88;;
21315;SDS011;10817;55.820;13.030;2023-03-03T08:31:36;51.67;;;14.15;;
21315;SDS011;10817;55.820;13.030;2023-03-03T08:34:03;43.85;;;14.32;;
21315;SDS011;10817;55.820;13.030;2023-03-03T08:36:31;48.45;;;14.68;;
21315;SDS011;10817;55.820;13.030;2023-03-03T08:38:58;54.45;;;14.93;;
21315;SDS011;10817;55.820;13.030;2023-03-03T08:41:26;43.70;;;17.75;;
21315;SDS011;10817;55.820;13.030;2023-03-03T08:43:54;41.55;;;18.65;;
21315;SDS011;10817;55.820;13.030;2023-03-03T08:46:21;50.92;;;19.63;;
21315;SDS011;10817;55.820;13.030;2023-03-03T08:48:49;47.83;;;19.17;;
21315;SDS011;10817;55.820;13.030;2023-03-03T08:51:16;47.20;;;21.33;;
21315;SDS011;10817;55.820;13.030;2023-03-03T08:53:44;48.47;;;22.50;;
21315;SDS011;10817;55.820;13.030;2023-03-03T08:56:11;51.17;;;23.58;;
21315;SDS011;10817;55.820;13.030;2023-03-03T08:58:39;44.35;;;22.65;;
21315;SDS011;10817;55.820;13.030;2023-03-03T09:01:12;42.13;;;21.42;;
21315;SDS011;10817;55.820;13.030;2023-03-03T09:03:41;32.28;;;17.63;;
21315;SDS011;10817;55.820;13.030;2023-03-03T09:06:09;33.28;;;19.52;;
21315;SDS011;10817;55.820;13.030;2023-03-03T09:08:36;32.67;;;17.92;;
21315;SDS011;10817;55.820;13.030;2023-03-03T09:11:08;30.35;;;14.43;;
21315;SDS011;10817;55.820;13.030;2023-03-03T09:13:36;30.83;;;15.77;;
21315;SDS011;10817;55.820;13.030;2023-03-03T09:16:09;28.50;;;15.15;;
21315;SDS011;10817;55.820;13.030;2023-03-03T09:18:37;26.98;;;14.35;;
21315;SDS011;10817;55.820;13.030;2023-03-03T09:21:15;24.08;;;14.77;;
21315;SDS011;10817;55.820;13.030;2023-03-03T09:23:52;27.48;;;13.88;;
21315;SDS011;10817;55.820;13.030;2023-03-03T09:26:27;25.95;;;13.98;;
21315;SDS011;10817;55.820;13.030;2023-03-03T09:28:56;29.50;;;14.40;;
21315;SDS011;10817;55.820;13.030;2023-03-03T09:31:26;23.55;;;14.45;;
21315;SDS011;10817;55.820;13.030;2023-03-03T09:33:53;26.58;;;14.98;;
21315;SDS011;10817;55.820;13.030;2023-03-03T09:36:24;28.48;;;14.55;;
21315;SDS011;10817;55.820;13.030;2023-03-03T09:38:51;25.13;;;12.18;;
21315;SDS011;10817;55.820;13.030;2023-03-03T09:44:09;22.63;;;11.20;;
21315;SDS011;10817;55.820;13.030;2023-03-03T09:46:43;21.00;;;11.25;;
21315;SDS011;10817;55.820;13.030;2023-03-03T09:49:16;19.95;;;12.23;;
21315;SDS011;10817;55.820;13.030;2023-03-03T09:51:54;19.55;;;11.30;;
21315;SDS011;10817;55.820;13.030;2023-03-03T09:57:07;22.30;;;11.88;;
21315;SDS011;10817;55.820;13.030;2023-03-03T09:59:39;19.55;;;12.00;;
21315;SDS011;10817;55.820;13.030;2023-03-03T10:02:18;19.98;;;11.40;;
21315;SDS011;10817;55.820;13.030;2023-03-03T10:05:03;22.25;;;12.13;;
21315;SDS011;10817;55.820;13.030;2023-03-03T10:07:38;20.65;;;12.23;;
21315;SDS011;10817;55.820;13.030;2023-03-03T10:10:16;17.70;;;10.93;;
21315;SDS011;10817;55.820;13.030;2023-03-03T10:12:47;18.85;;;11.30;;
21315;SDS011;10817;55.820;13.030;2023-03-03T10:15:20;24.92;;;12.85;;
21315;SDS011;10817;55.820;13.030;2023-03-03T10:17:52;20.60;;;12.25;;
21315;SDS011;10817;55.820;13.030;2023-03-03T10:20:26;19.17;;;11.23;;
21315;SDS011;10817;55.820;13.030;2023-03-03T10:22:59;21.20;;;11.43;;
21315;SDS011;10817;55.820;13.030;2023-03-03T10:25:34;20.10;;;12.52;;
21315;SDS011;10817;55.820;13.030;2023-03-03T10:30:51;22.98;;;13.68;;
21315;SDS011;10817;55.820;13.030;2023-03-03T10:33:23;28.50;;;15.00;;
21315;SDS011;10817;55.820;13.030;2023-03-03T10:35:57;19.77;;;12.40;;
21315;SDS011;10817;55.820;13.030;2023-03-03T10:38:31;21.80;;;12.15;;
21315;SDS011;10817;55.820;13.030;2023-03-03T10:41:04;19.60;;;11.48;;
21315;SDS011;10817;55.820;13.030;2023-03-03T10:43:49;16.17;;;10.73;;
21315;SDS011;10817;55.820;13.030;2023-03-03T10:46:29;17.95;;;12.38;;
21315;SDS011;10817;55.820;13.030;2023-03-03T10:49:14;16.80;;;11.75;;
21315;SDS011;10817;55.820;13.030;2023-03-03T10:51:48;21.35;;;12.80;;
21315;SDS011;10817;55.820;13.030;2023-03-03T10:54:24;26.10;;;14.18;;
21315;SDS011;10817;55.820;13.030;2023-03-03T10:56:56;23.30;;;12.85;;
21315;SDS011;10817;55.820;13.030;2023-03-03T10:59:29;17.90;;;11.80;;
21315;SDS011;10817;55.820;13.030;2023-03-03T11:02:02;19.65;;;11.60;;
21315;SDS011;10817;55.820;13.030;2023-03-03T11:07:15;17.50;;;10.38;;
21315;SDS011;10817;55.820;13.030;2023-03-03T11:09:51;20.48;;;11.65;;
21315;SDS011;10817;55.820;13.030;2023-03-03T11:12:26;19.30;;;11.68;;
21315;SDS011;10817;55.820;13.030;2023-03-03T11:14:58;21.98;;;12.07;;
21315;SDS011;10817;55.820;13.030;2023-03-03T11:17:32;16.73;;;10.00;;
21315;SDS011;10817;55.820;13.030;2023-03-03T11:20:07;17.30;;;9.68;;
21315;SDS011;10817;55.820;13.030;2023-03-03T11:22:41;17.15;;;9.68;;
21315;SDS011;10817;55.820;13.030;2023-03-03T11:25:13;17.33;;;9.65;;
21315;SDS011;10817;55.820;13.030;2023-03-03T11:27:50;16.63;;;9.70;;
21315;SDS011;10817;55.820;13.030;2023-03-03T11:30:27;18.27;;;9.93;;
21315;SDS011;10817;55.820;13.030;2023-03-03T11:33:00;16.75;;;9.65;;
21315;SDS011;10817;55.820;13.030;2023-03-03T11:35:32;18.13;;;9.23;;
21315;SDS011;10817;55.820;13.030;2023-03-03T11:38:05;12.85;;;7.82;;
21315;SDS011;10817;55.820;13.030;2023-03-03T11:40:44;15.32;;;8.38;;
21315;SDS011;10817;55.820;13.030;2023-03-03T11:43:15;16.10;;;8.25;;
21315;SDS011;10817;55.820;13.030;2023-03-03T11:45:43;14.98;;;8.18;;
21315;SDS011;10817;55.820;13.030;2023-03-03T11:48:15;13.27;;;7.28;;
21315;SDS011;10817;55.820;13.030;2023-03-03T11:50:45;13.65;;;7.47;;
21315;SDS011;10817;55.820;13.030;2023-03-03T11:53:23;14.85;;;6.93;;
21315;SDS011;10817;55.820;13.030;2023-03-03T11:55:54;14.85;;;6.93;;
21315;SDS011;10817;55.820;13.030;2023-03-03T11:58:24;17.08;;;7.20;;
21315;SDS011;10817;55.820;13.030;2023-03-03T12:00:53;14.20;;;7.93;;
21315;SDS011;10817;55.820;13.030;2023-03-03T12:03:28;14.77;;;7.53;;
21315;SDS011;10817;55.820;13.030;2023-03-03T12:06:01;15.70;;;8.02;;
21315;SDS011;10817;55.820;13.030;2023-03-03T12:08:48;19.20;;;8.75;;
21315;SDS011;10817;55.820;13.030;2023-03-03T12:11:23;14.93;;;8.20;;
21315;SDS011;10817;55.820;13.030;2023-03-03T12:13:54;17.17;;;8.00;;
21315;SDS011;10817;55.820;13.030;2023-03-03T12:16:26;15.73;;;8.45;;
21315;SDS011;10817;55.820;13.030;2023-03-03T12:18:59;16.60;;;7.03;;
21315;SDS011;10817;55.820;13.030;2023-03-03T12:21:32;16.02;;;7.97;;
21315;SDS011;10817;55.820;13.030;2023-03-03T12:24:06;11.43;;;6.90;;
21315;SDS011;10817;55.820;13.030;2023-03-03T12:26:41;14.85;;;7.10;;
21315;SDS011;10817;55.820;13.030;2023-03-03T12:29:16;12.30;;;7.78;;
21315;SDS011;10817;55.820;13.030;2023-03-03T12:31:48;14.18;;;6.88;;
21315;SDS011;10817;55.820;13.030;2023-03-03T12:34:18;12.13;;;7.53;;
21315;SDS011;10817;55.820;13.030;2023-03-03T12:36:49;10.52;;;6.97;;
21315;SDS011;10817;55.820;13.030;2023-03-03T12:39:27;12.10;;;7.40;;
21315;SDS011;10817;55.820;13.030;2023-03-03T12:41:58;10.55;;;6.80;;
21315;SDS011;10817;55.820;13.030;2023-03-03T12:44:28;12.43;;;6.75;;
21315;SDS011;10817;55.820;13.030;2023-03-03T12:47:02;11.68;;;7.20;;
21315;SDS011;10817;55.820;13.030;2023-03-03T12:49:33;12.43;;;6.68;;
21315;SDS011;10817;55.820;13.030;2023-03-03T12:52:07;16.02;;;7.18;;
21315;SDS011;10817;55.820;13.030;2023-03-03T12:54:55;9.68;;;6.38;;
21315;SDS011;10817;55.820;13.030;2023-03-03T12:57:27;11.73;;;6.35;;
21315;SDS011;10817;55.820;13.030;2023-03-03T13:02:58;7.63;;;5.63;;
21315;SDS011;10817;55.820;13.030;2023-03-03T13:05:28;10.05;;;5.35;;
21315;SDS011;10817;55.820;13.030;2023-03-03T13:07:59;7.45;;;5.75;;
21315;SDS011;10817;55.820;13.030;2023-03-03T13:10:33;11.95;;;5.40;;
21315;SDS011;10817;55.820;13.030;2023-03-03T13:13:04;8.18;;;5.50;;
21315;SDS011;10817;55.820;13.030;2023-03-03T13:15:33;11.02;;;6.43;;
21315;SDS011;10817;55.820;13.030;2023-03-03T13:18:09;8.25;;;5.50;;
21315;SDS011;10817;55.820;13.030;2023-03-03T13:20:42;7.95;;;5.53;;
21315;SDS011;10817;55.820;13.030;2023-03-03T13:23:12;7.88;;;5.50;;
21315;SDS011;10817;55.820;13.030;2023-03-03T13:25:50;10.13;;;5.28;;
21315;SDS011;10817;55.820;13.030;2023-03-03T13:28:24;9.55;;;5.18;;
21315;SDS011;10817;55.820;13.030;2023-03-03T13:30:55;10.68;;;5.88;;
21315;SDS011;10817;55.820;13.030;2023-03-03T13:33:24;8.60;;;6.05;;
21315;SDS011;10817;55.820;13.030;2023-03-03T13:35:53;9.60;;;6.22;;
21315;SDS011;10817;55.820;13.030;2023-03-03T13:38:21;9.75;;;7.05;;
21315;SDS011;10817;55.820;13.030;2023-03-03T13:40:52;11.23;;;6.68;;
21315;SDS011;10817;55.820;13.030;2023-03-03T13:43:25;8.15;;;6.28;;
21315;SDS011;10817;55.820;13.030;2023-03-03T13:45:55;8.23;;;6.50;;
21315;SDS011;10817;55.820;13.030;2023-03-03T13:48:27;8.25;;;6.22;;
21315;SDS011;10817;55.820;13.030;2023-03-03T13:51:00;12.95;;;6.55;;
21315;SDS011;10817;55.820;13.030;2023-03-03T13:53:33;7.93;;;6.05;;
21315;SDS011;10817;55.820;13.030;2023-03-03T13:56:10;8.07;;;5.78;;
21315;SDS011;10817;55.820;13.030;2023-03-03T13:58:43;8.88;;;5.47;;
21315;SDS011;10817;55.820;13.030;2023-03-03T14:01:12;6.72;;;5.43;;
21315;SDS011;10817;55.820;13.030;2023-03-03T14:03:45;8.23;;;5.82;;
21315;SDS011;10817;55.820;13.030;2023-03-03T14:06:16;8.65;;;5.75;;
21315;SDS011;10817;55.820;13.030;2023-03-03T14:08:47;8.55;;;5.28;;
21315;SDS011;10817;55.820;13.030;2023-03-03T14:11:18;7.53;;;5.40;;
21315;SDS011;10817;55.820;13.030;2023-03-03T14:13:52;8.88;;;5.72;;
21315;SDS011;10817;55.820;13.030;2023-03-03T14:16:28;10.82;;;5.75;;
21315;SDS011;10817;55.820;13.030;2023-03-03T14:19:01;11.75;;;5.88;;
21315;SDS011;10817;55.820;13.030;2023-03-03T14:21:30;6.35;;;4.75;;
21315;SDS011;10817;55.820;13.030;2023-03-03T14:24:03;10.77;;;5.43;;
21315;SDS011;10817;55.820;13.030;2023-03-03T14:26:45;9.80;;;4.97;;
21315;SDS011;10817;55.820;13.030;2023-03-03T14:29:28;9.88;;;5.30;;
21315;SDS011;10817;55.820;13.030;2023-03-03T14:31:56;10.80;;;5.75;;
21315;SDS011;10817;55.820;13.030;2023-03-03T14:34:28;10.65;;;6.13;;
21315;SDS011;10817;55.820;13.030;2023-03-03T14:36:57;14.85;;;6.28;;
21315;SDS011;10817;55.820;13.030;2023-03-03T14:39:27;9.40;;;5.90;;
21315;SDS011;10817;55.820;13.030;2023-03-03T14:41:58;10.00;;;5.68;;
21315;SDS011;10817;55.820;13.030;2023-03-03T14:44:29;9.15;;;5.97;;